sensor_id;sensor_type;location;lat;lon;timestamp;pressure;altitude;pressure_sealevel;temperature;humidity
84760;BME280;74983;51.084;11.086;2024-01-16T00:02:24;98726.44;;;1.05;77.73
84760;BME280;74983;51.084;11.086;2024-01-16T00:04:49;98729.91;;;1.04;78.41
84760;BME280;74983;51.084;11.086;2024-01-16T00:07:15;98734.78;;;1.09;77.85
84760;BME280;74983;51.084;11.086;2024-01-16T00:09:40;98732.13;;;1.10;77.50
84760;BME280;74983;51.084;11.086;2024-01-16T00:12:05;98738.59;;;1.17;76.76
84760;BME280;74983;51.084;11.086;2024-01-16T00:14:35;98741.06;;;1.19;76.43
84760;BME280;74983;51.084;11.086;2024-01-16T00:17:00;98751.31;;;1.19;76.01
84760;BME280;74983;51.084;11.086;2024-01-16T00:19:25;98745.78;;;1.27;76.21
84760;BME280;74983;51.084;11.086;2024-01-16T00:21:51;98750.25;;;1.23;76.43
84760;BME280;74983;51.084;11.086;2024-01-16T00:24:16;98753.97;;;1.17;77.37
84760;BME280;74983;51.084;11.086;2024-01-16T00:26:42;98755.03;;;1.13;77.22
84760;BME280;74983;51.084;11.086;2024-01-16T00:29:08;98752.34;;;1.17;76.97
84760;BME280;74983;51.084;11.086;2024-01-16T00:31:34;98758.84;;;1.22;76.93
84760;BME280;74983;51.084;11.086;2024-01-16T00:34:00;98764.06;;;1.21;77.40
84760;BME280;74983;51.084;11.086;2024-01-16T00:36:25;98761.09;;;1.12;77.57
84760;BME280;74983;51.084;11.086;2024-01-16T00:38:50;98753.41;;;1.12;77.20
84760;BME280;74983;51.084;11.086;2024-01-16T00:41:15;98762.91;;;1.10;77.32
84760;BME280;74983;51.084;11.086;2024-01-16T00:43:42;98768.69;;;0.98;77.72
84760;BME280;74983;51.084;11.086;2024-01-16T00:46:08;98764.78;;;0.91;78.05
84760;BME280;74983;51.084;11.086;2024-01-16T00:48:33;98771.41;;;0.95;77.99
84760;BME280;74983;51.084;11.086;2024-01-16T00:50:58;98760.81;;;1.01;78.02
84760;BME280;74983;51.084;11.086;2024-01-16T00:53:24;98775.53;;;1.13;78.04
84760;BME280;74983;51.084;11.086;2024-01-16T00:55:49;98781.09;;;1.06;78.75
84760;BME280;74983;51.084;11.086;2024-01-16T00:58:15;98780.63;;;1.15;78.07
84760;BME280;74983;51.084;11.086;2024-01-16T01:00:40;98788.22;;;1.17;77.59
84760;BME280;74983;51.084;11.086;2024-01-16T01:03:05;98778.72;;;1.19;77.99
84760;BME280;74983;51.084;11.086;2024-01-16T01:05:31;98786.31;;;1.20;78.11
84760;BME280;74983;51.084;11.086;2024-01-16T01:07:57;98782.94;;;1.20;77.59
84760;BME280;74983;51.084;11.086;2024-01-16T01:10:23;98786.25;;;1.22;77.74
84760;BME280;74983;51.084;11.086;2024-01-16T01:12:48;98803.09;;;1.26;77.54
84760;BME280;74983;51.084;11.086;2024-01-16T01:15:14;98805.91;;;1.21;78.14
84760;BME280;74983;51.084;11.086;2024-01-16T01:17:40;98808.56;;;1.20;78.78
84760;BME280;74983;51.084;11.086;2024-01-16T01:20:06;98815.41;;;1.19;78.28
84760;BME280;74983;51.084;11.086;2024-01-16T01:22:32;98816.91;;;1.23;79.04
84760;BME280;74983;51.084;11.086;2024-01-16T01:24:57;98819.66;;;1.20;78.66
84760;BME280;74983;51.084;11.086;2024-01-16T01:27:22;98819.56;;;1.22;78.26
84760;BME280;74983;51.084;11.086;2024-01-16T01:29:47;98839.34;;;1.20;78.80
84760;BME280;74983;51.084;11.086;2024-01-16T01:32:13;98839.91;;;1.25;78.14
84760;BME280;74983;51.084;11.086;2024-01-16T01:34:38;98839.41;;;1.18;78.36
84760;BME280;74983;51.084;11.086;2024-01-16T01:37:06;98842.31;;;1.28;77.61
84760;BME280;74983;51.084;11.086;2024-01-16T01:39:31;98859.50;;;1.26;77.67
84760;BME280;74983;51.084;11.086;2024-01-16T01:41:57;98856.22;;;1.24;78.23
84760;BME280;74983;51.084;11.086;2024-01-16T01:44:22;98853.78;;;1.21;78.53
84760;BME280;74983;51.084;11.086;2024-01-16T01:46:49;98859.91;;;1.18;78.37
84760;BME280;74983;51.084;11.086;2024-01-16T01:49:15;98872.41;;;1.24;78.01
84760;BME280;74983;51.084;11.086;2024-01-16T01:51:40;98876.78;;;1.22;77.71
84760;BME280;74983;51.084;11.086;2024-01-16T01:54:06;98875.13;;;1.21;78.51
84760;BME280;74983;51.084;11.086;2024-01-16T01:56:32;98890.69;;;1.18;78.83
84760;BME280;74983;51.084;11.086;2024-01-16T01:58:58;98889.94;;;1.16;78.00
84760;BME280;74983;51.084;11.086;2024-01-16T02:01:25;98893.25;;;1.18;77.89
84760;BME280;74983;51.084;11.086;2024-01-16T02:03:54;98892.50;;;1.16;78.03
84760;BME280;74983;51.084;11.086;2024-01-16T02:06:20;98901.25;;;1.12;78.36
84760;BME280;74983;51.084;11.086;2024-01-16T02:08:45;98895.56;;;1.23;77.98
84760;BME280;74983;51.084;11.086;2024-01-16T02:11:10;98899.63;;;1.27;77.58
84760;BME280;74983;51.084;11.086;2024-01-16T02:13:36;98901.53;;;1.23;78.39
84760;BME280;74983;51.084;11.086;2024-01-16T02:16:02;98901.63;;;1.22;77.94
84760;BME280;74983;51.084;11.086;2024-01-16T02:18:28;98906.81;;;1.20;78.66
84760;BME280;74983;51.084;11.086;2024-01-16T02:20:57;98902.66;;;1.17;78.82
84760;BME280;74983;51.084;11.086;2024-01-16T02:23:26;98909.38;;;1.20;79.22
84760;BME280;74983;51.084;11.086;2024-01-16T02:25:51;98905.31;;;1.16;79.09
84760;BME280;74983;51.084;11.086;2024-01-16T02:28:17;98909.75;;;1.12;79.30
84760;BME280;74983;51.084;11.086;2024-01-16T02:30:42;98906.38;;;1.12;79.87
84760;BME280;74983;51.084;11.086;2024-01-16T02:33:07;98904.22;;;1.04;79.73
84760;BME280;74983;51.084;11.086;2024-01-16T02:35:36;98915.81;;;0.94;80.69
84760;BME280;74983;51.084;11.086;2024-01-16T02:38:01;98914.00;;;0.96;80.55
84760;BME280;74983;51.084;11.086;2024-01-16T02:40:26;98917.25;;;1.00;80.05
84760;BME280;74983;51.084;11.086;2024-01-16T02:42:52;98914.38;;;1.06;80.46
84760;BME280;74983;51.084;11.086;2024-01-16T02:45:17;98919.34;;;1.09;79.37
84760;BME280;74983;51.084;11.086;2024-01-16T02:47:42;98925.38;;;1.08;80.52
84760;BME280;74983;51.084;11.086;2024-01-16T02:50:08;98923.88;;;1.04;80.23
84760;BME280;74983;51.084;11.086;2024-01-16T02:52:35;98920.63;;;1.00;80.26
84760;BME280;74983;51.084;11.086;2024-01-16T02:55:00;98923.97;;;1.02;80.28
84760;BME280;74983;51.084;11.086;2024-01-16T02:57:25;98930.97;;;0.99;80.11
84760;BME280;74983;51.084;11.086;2024-01-16T02:59:50;98935.25;;;0.98;80.50
84760;BME280;74983;51.084;11.086;2024-01-16T03:02:16;98945.28;;;1.03;80.14
84760;BME280;74983;51.084;11.086;2024-01-16T03:04:41;98951.47;;;0.99;80.71
84760;BME280;74983;51.084;11.086;2024-01-16T03:07:06;98944.75;;;0.96;81.32
84760;BME280;74983;51.084;11.086;2024-01-16T03:09:31;98960.28;;;0.93;82.52
84760;BME280;74983;51.084;11.086;2024-01-16T03:11:57;98958.53;;;0.77;85.37
84760;BME280;74983;51.084;11.086;2024-01-16T03:14:23;98974.38;;;0.68;86.44
84760;BME280;74983;51.084;11.086;2024-01-16T03:16:48;98965.09;;;0.65;86.42
84760;BME280;74983;51.084;11.086;2024-01-16T03:19:13;98974.38;;;0.68;86.51
84760;BME280;74983;51.084;11.086;2024-01-16T03:21:38;98979.94;;;0.59;87.58
84760;BME280;74983;51.084;11.086;2024-01-16T03:24:04;98982.56;;;0.57;87.84
84760;BME280;74983;51.084;11.086;2024-01-16T03:26:30;98994.75;;;0.52;89.04
84760;BME280;74983;51.084;11.086;2024-01-16T03:28:56;98991.44;;;0.50;89.29
84760;BME280;74983;51.084;11.086;2024-01-16T03:31:21;99002.25;;;0.38;90.77
84760;BME280;74983;51.084;11.086;2024-01-16T03:33:47;99000.25;;;0.26;92.54
84760;BME280;74983;51.084;11.086;2024-01-16T03:36:12;98996.59;;;0.13;93.08
84760;BME280;74983;51.084;11.086;2024-01-16T03:38:38;99002.34;;;-0.01;93.75
84760;BME280;74983;51.084;11.086;2024-01-16T03:41:04;99000.50;;;-0.17;92.98
84760;BME280;74983;51.084;11.086;2024-01-16T03:43:29;98999.47;;;-0.32;94.31
84760;BME280;74983;51.084;11.086;2024-01-16T03:45:57;99004.91;;;-0.39;94.09
84760;BME280;74983;51.084;11.086;2024-01-16T03:48:23;98999.31;;;-0.47;93.09
84760;BME280;74983;51.084;11.086;2024-01-16T03:50:48;99006.22;;;-0.49;92.51
84760;BME280;74983;51.084;11.086;2024-01-16T03:53:13;98997.44;;;-0.44;92.61
84760;BME280;74983;51.084;11.086;2024-01-16T03:55:39;98997.59;;;-0.28;91.67
84760;BME280;74983;51.084;11.086;2024-01-16T03:58:04;98989.50;;;-0.19;90.31
84760;BME280;74983;51.084;11.086;2024-01-16T04:00:29;98996.44;;;-0.21;89.93
84760;BME280;74983;51.084;11.086;2024-01-16T04:02:54;99000.91;;;-0.26;90.83
84760;BME280;74983;51.084;11.086;2024-01-16T04:05:20;99001.34;;;-0.17;91.08
84760;BME280;74983;51.084;11.086;2024-01-16T04:07:45;99010.25;;;-0.07;89.81
84760;BME280;74983;51.084;11.086;2024-01-16T04:10:10;99015.31;;;-0.05;90.48
84760;BME280;74983;51.084;11.086;2024-01-16T04:12:35;99016.22;;;-0.06;90.99
84760;BME280;74983;51.084;11.086;2024-01-16T04:15:01;99026.47;;;-0.06;91.40
84760;BME280;74983;51.084;11.086;2024-01-16T04:17:26;99020.78;;;-0.13;91.57
84760;BME280;74983;51.084;11.086;2024-01-16T04:19:52;99029.81;;;-0.24;91.45
84760;BME280;74983;51.084;11.086;2024-01-16T04:22:17;99023.88;;;-0.25;90.67
84760;BME280;74983;51.084;11.086;2024-01-16T04:24:42;99025.53;;;-0.24;90.60
84760;BME280;74983;51.084;11.086;2024-01-16T04:27:10;99027.38;;;-0.27;91.22
84760;BME280;74983;51.084;11.086;2024-01-16T04:29:36;99025.47;;;-0.22;91.00
84760;BME280;74983;51.084;11.086;2024-01-16T04:32:01;99034.59;;;-0.17;89.83
84760;BME280;74983;51.084;11.086;2024-01-16T04:34:27;99030.56;;;-0.22;89.17
84760;BME280;74983;51.084;11.086;2024-01-16T04:36:52;99040.03;;;-0.24;89.37
84760;BME280;74983;51.084;11.086;2024-01-16T04:39:17;99046.38;;;-0.33;89.32
84760;BME280;74983;51.084;11.086;2024-01-16T04:41:43;99041.63;;;-0.40;88.05
84760;BME280;74983;51.084;11.086;2024-01-16T04:44:08;99042.81;;;-0.49;87.74
84760;BME280;74983;51.084;11.086;2024-01-16T04:46:34;99055.41;;;-0.64;88.63
84760;BME280;74983;51.084;11.086;2024-01-16T04:48:59;99051.97;;;-0.63;89.17
84760;BME280;74983;51.084;11.086;2024-01-16T04:51:25;99052.66;;;-0.60;87.09
84760;BME280;74983;51.084;11.086;2024-01-16T04:53:50;99054.38;;;-0.60;87.78
84760;BME280;74983;51.084;11.086;2024-01-16T04:56:15;99050.53;;;-0.50;87.38
84760;BME280;74983;51.084;11.086;2024-01-16T04:58:40;99053.81;;;-0.47;86.68
84760;BME280;74983;51.084;11.086;2024-01-16T05:01:06;99050.78;;;-0.36;86.23
84760;BME280;74983;51.084;11.086;2024-01-16T05:03:31;99046.91;;;-0.25;84.63
84760;BME280;74983;51.084;11.086;2024-01-16T05:05:56;99055.38;;;-0.24;85.18
84760;BME280;74983;51.084;11.086;2024-01-16T05:08:22;99058.72;;;-0.22;83.78
84760;BME280;74983;51.084;11.086;2024-01-16T05:10:47;99066.38;;;-0.22;84.13
84760;BME280;74983;51.084;11.086;2024-01-16T05:13:12;99068.78;;;-0.18;85.50
84760;BME280;74983;51.084;11.086;2024-01-16T05:15:38;99063.28;;;-0.29;85.25
84760;BME280;74983;51.084;11.086;2024-01-16T05:18:03;99068.38;;;-0.29;84.55
84760;BME280;74983;51.084;11.086;2024-01-16T05:20:29;99067.28;;;-0.43;84.55
84760;BME280;74983;51.084;11.086;2024-01-16T05:22:54;99075.94;;;-0.46;85.73
84760;BME280;74983;51.084;11.086;2024-01-16T05:25:19;99083.63;;;-0.46;86.57
84760;BME280;74983;51.084;11.086;2024-01-16T05:27:46;99080.06;;;-0.43;87.62
84760;BME280;74983;51.084;11.086;2024-01-16T05:30:11;99082.53;;;-0.40;85.92
84760;BME280;74983;51.084;11.086;2024-01-16T05:32:37;99082.31;;;-0.36;86.17
84760;BME280;74983;51.084;11.086;2024-01-16T05:35:04;99075.88;;;-0.44;85.43
84760;BME280;74983;51.084;11.086;2024-01-16T05:37:30;99080.91;;;-0.43;86.80
84760;BME280;74983;51.084;11.086;2024-01-16T05:39:55;99079.19;;;-0.42;86.15
84760;BME280;74983;51.084;11.086;2024-01-16T05:42:20;99080.00;;;-0.42;86.71
84760;BME280;74983;51.084;11.086;2024-01-16T05:44:45;99079.72;;;-0.54;85.68
84760;BME280;74983;51.084;11.086;2024-01-16T05:47:11;99080.09;;;-0.63;86.40
84760;BME280;74983;51.084;11.086;2024-01-16T05:49:36;99087.53;;;-0.79;87.21
84760;BME280;74983;51.084;11.086;2024-01-16T05:52:01;99082.78;;;-0.88;86.83
84760;BME280;74983;51.084;11.086;2024-01-16T05:54:27;99077.28;;;-0.99;87.20
84760;BME280;74983;51.084;11.086;2024-01-16T05:56:52;99080.66;;;-0.98;88.15
84760;BME280;74983;51.084;11.086;2024-01-16T05:59:17;99076.28;;;-0.95;88.25
84760;BME280;74983;51.084;11.086;2024-01-16T06:01:43;99090.59;;;-0.91;88.16
84760;BME280;74983;51.084;11.086;2024-01-16T06:04:08;99083.16;;;-0.97;87.18
84760;BME280;74983;51.084;11.086;2024-01-16T06:06:33;99088.56;;;-1.04;88.13
84760;BME280;74983;51.084;11.086;2024-01-16T06:08:58;99087.25;;;-1.15;87.96
84760;BME280;74983;51.084;11.086;2024-01-16T06:11:30;99087.63;;;-1.24;88.41
84760;BME280;74983;51.084;11.086;2024-01-16T06:13:55;99088.38;;;-1.22;88.71
84760;BME280;74983;51.084;11.086;2024-01-16T06:16:20;99094.22;;;-1.18;87.97
84760;BME280;74983;51.084;11.086;2024-01-16T06:18:46;99095.34;;;-1.25;88.86
84760;BME280;74983;51.084;11.086;2024-01-16T06:21:11;99099.84;;;-1.32;88.58
84760;BME280;74983;51.084;11.086;2024-01-16T06:23:37;99104.13;;;-1.32;88.18
84760;BME280;74983;51.084;11.086;2024-01-16T06:26:02;99105.38;;;-1.42;87.30
84760;BME280;74983;51.084;11.086;2024-01-16T06:28:28;99104.91;;;-1.53;86.97
84760;BME280;74983;51.084;11.086;2024-01-16T06:30:53;99101.03;;;-1.63;88.07
84760;BME280;74983;51.084;11.086;2024-01-16T06:33:18;99104.84;;;-1.73;87.56
84760;BME280;74983;51.084;11.086;2024-01-16T06:35:44;99104.06;;;-1.75;88.58
84760;BME280;74983;51.084;11.086;2024-01-16T06:38:09;99102.34;;;-1.75;88.07
84760;BME280;74983;51.084;11.086;2024-01-16T06:40:34;99098.16;;;-1.77;86.97
84760;BME280;74983;51.084;11.086;2024-01-16T06:42:59;99098.50;;;-1.86;87.46
84760;BME280;74983;51.084;11.086;2024-01-16T06:45:25;99105.00;;;-2.01;89.25
84760;BME280;74983;51.084;11.086;2024-01-16T06:47:51;99100.56;;;-1.96;88.75
84760;BME280;74983;51.084;11.086;2024-01-16T06:50:17;99101.16;;;-1.89;89.12
84760;BME280;74983;51.084;11.086;2024-01-16T06:52:42;99100.97;;;-1.83;89.46
84760;BME280;74983;51.084;11.086;2024-01-16T06:55:07;99102.59;;;-1.82;89.39
84760;BME280;74983;51.084;11.086;2024-01-16T06:57:33;99105.28;;;-1.85;88.18
84760;BME280;74983;51.084;11.086;2024-01-16T06:59:58;99099.34;;;-1.86;88.58
84760;BME280;74983;51.084;11.086;2024-01-16T07:02:23;99107.97;;;-1.90;88.41
84760;BME280;74983;51.084;11.086;2024-01-16T07:04:48;99121.16;;;-2.02;88.70
84760;BME280;74983;51.084;11.086;2024-01-16T07:07:14;99122.00;;;-2.01;89.91
84760;BME280;74983;51.084;11.086;2024-01-16T07:09:39;99128.44;;;-1.91;88.74
84760;BME280;74983;51.084;11.086;2024-01-16T07:12:04;99136.88;;;-1.89;90.28
84760;BME280;74983;51.084;11.086;2024-01-16T07:14:30;99141.34;;;-1.71;89.67
84760;BME280;74983;51.084;11.086;2024-01-16T07:16:55;99135.84;;;-1.61;89.82
84760;BME280;74983;51.084;11.086;2024-01-16T07:19:21;99138.50;;;-1.64;88.66
84760;BME280;74983;51.084;11.086;2024-01-16T07:21:46;99138.78;;;-1.71;89.53
84760;BME280;74983;51.084;11.086;2024-01-16T07:24:11;99139.88;;;-1.78;90.37
84760;BME280;74983;51.084;11.086;2024-01-16T07:26:38;99139.28;;;-1.85;90.17
84760;BME280;74983;51.084;11.086;2024-01-16T07:29:03;99137.41;;;-1.81;90.74
84760;BME280;74983;51.084;11.086;2024-01-16T07:31:28;99149.56;;;-1.88;90.21
84760;BME280;74983;51.084;11.086;2024-01-16T07:33:54;99149.50;;;-1.86;90.75
84760;BME280;74983;51.084;11.086;2024-01-16T07:36:19;99153.03;;;-1.89;90.12
84760;BME280;74983;51.084;11.086;2024-01-16T07:38:45;99151.19;;;-1.85;89.51
84760;BME280;74983;51.084;11.086;2024-01-16T07:41:10;99155.50;;;-1.87;89.40
84760;BME280;74983;51.084;11.086;2024-01-16T07:43:35;99151.88;;;-1.80;90.55
84760;BME280;74983;51.084;11.086;2024-01-16T07:46:01;99163.53;;;-1.73;89.29
84760;BME280;74983;51.084;11.086;2024-01-16T07:48:26;99160.41;;;-1.58;89.92
84760;BME280;74983;51.084;11.086;2024-01-16T07:50:51;99159.88;;;-1.43;90.14
84760;BME280;74983;51.084;11.086;2024-01-16T07:53:17;99157.69;;;-1.31;88.54
84760;BME280;74983;51.084;11.086;2024-01-16T07:55:42;99162.09;;;-1.13;88.69
84760;BME280;74983;51.084;11.086;2024-01-16T07:58:10;99155.66;;;-0.99;88.44
84760;BME280;74983;51.084;11.086;2024-01-16T08:00:35;99156.31;;;-0.94;87.09
84760;BME280;74983;51.084;11.086;2024-01-16T08:03:01;99155.28;;;-0.90;87.16
84760;BME280;74983;51.084;11.086;2024-01-16T08:05:26;99154.69;;;-0.75;86.10
84760;BME280;74983;51.084;11.086;2024-01-16T08:07:53;99153.78;;;-0.74;86.29
84760;BME280;74983;51.084;11.086;2024-01-16T08:10:18;99157.25;;;-0.75;86.39
84760;BME280;74983;51.084;11.086;2024-01-16T08:12:44;99166.00;;;-0.81;86.14
84760;BME280;74983;51.084;11.086;2024-01-16T08:15:09;99160.31;;;-0.89;87.18
84760;BME280;74983;51.084;11.086;2024-01-16T08:17:34;99159.53;;;-0.89;86.87
84760;BME280;74983;51.084;11.086;2024-01-16T08:20:00;99165.09;;;-0.80;86.10
84760;BME280;74983;51.084;11.086;2024-01-16T08:22:25;99154.50;;;-0.71;86.81
84760;BME280;74983;51.084;11.086;2024-01-16T08:24:50;99157.63;;;-0.63;85.98
84760;BME280;74983;51.084;11.086;2024-01-16T08:27:15;99154.59;;;-0.52;86.23
84760;BME280;74983;51.084;11.086;2024-01-16T08:29:42;99160.31;;;-0.46;86.38
84760;BME280;74983;51.084;11.086;2024-01-16T08:32:07;99156.63;;;-0.39;85.47
84760;BME280;74983;51.084;11.086;2024-01-16T08:34:33;99158.28;;;-0.38;85.88
84760;BME280;74983;51.084;11.086;2024-01-16T08:36:58;99155.78;;;-0.39;84.96
84760;BME280;74983;51.084;11.086;2024-01-16T08:39:23;99157.31;;;-0.35;84.60
84760;BME280;74983;51.084;11.086;2024-01-16T08:41:49;99157.13;;;-0.31;84.90
84760;BME280;74983;51.084;11.086;2024-01-16T08:44:15;99160.38;;;-0.27;85.59
84760;BME280;74983;51.084;11.086;2024-01-16T08:46:40;99154.25;;;-0.23;85.00
84760;BME280;74983;51.084;11.086;2024-01-16T08:49:05;99150.56;;;-0.16;84.92
84760;BME280;74983;51.084;11.086;2024-01-16T08:51:30;99151.13;;;-0.10;84.65
84760;BME280;74983;51.084;11.086;2024-01-16T08:53:56;99164.47;;;-0.03;83.81
84760;BME280;74983;51.084;11.086;2024-01-16T08:56:21;99162.19;;;0.11;83.60
84760;BME280;74983;51.084;11.086;2024-01-16T08:58:47;99160.06;;;0.21;83.51
84760;BME280;74983;51.084;11.086;2024-01-16T09:01:12;99157.94;;;0.30;83.56
84760;BME280;74983;51.084;11.086;2024-01-16T09:03:37;99161.63;;;0.43;82.62
84760;BME280;74983;51.084;11.086;2024-01-16T09:06:02;99167.22;;;0.51;81.96
84760;BME280;74983;51.084;11.086;2024-01-16T09:08:28;99170.31;;;0.59;82.68
84760;BME280;74983;51.084;11.086;2024-01-16T09:10:54;99174.50;;;0.60;83.14
84760;BME280;74983;51.084;11.086;2024-01-16T09:13:20;99175.75;;;0.70;82.36
84760;BME280;74983;51.084;11.086;2024-01-16T09:15:47;99176.53;;;0.91;81.85
84760;BME280;74983;51.084;11.086;2024-01-16T09:18:12;99166.78;;;0.99;80.33
84760;BME280;74983;51.084;11.086;2024-01-16T09:20:38;99174.22;;;1.03;80.34
84760;BME280;74983;51.084;11.086;2024-01-16T09:23:03;99176.53;;;1.09;80.03
84760;BME280;74983;51.084;11.086;2024-01-16T09:25:28;99173.41;;;1.22;79.30
84760;BME280;74983;51.084;11.086;2024-01-16T09:27:54;99175.38;;;1.34;79.07
84760;BME280;74983;51.084;11.086;2024-01-16T09:30:20;99174.63;;;1.49;78.72
84760;BME280;74983;51.084;11.086;2024-01-16T09:32:47;99172.56;;;1.57;77.97
84760;BME280;74983;51.084;11.086;2024-01-16T09:35:12;99179.41;;;1.56;78.38
84760;BME280;74983;51.084;11.086;2024-01-16T09:37:38;99169.06;;;1.58;78.15
84760;BME280;74983;51.084;11.086;2024-01-16T09:40:05;99178.13;;;1.65;77.73
84760;BME280;74983;51.084;11.086;2024-01-16T09:42:31;99173.91;;;1.64;77.39
84760;BME280;74983;51.084;11.086;2024-01-16T09:44:56;99173.97;;;1.62;78.34
84760;BME280;74983;51.084;11.086;2024-01-16T09:47:24;99181.75;;;1.61;77.98
84760;BME280;74983;51.084;11.086;2024-01-16T09:49:49;99181.66;;;1.62;78.00
84760;BME280;74983;51.084;11.086;2024-01-16T09:52:14;99178.06;;;1.66;77.22
84760;BME280;74983;51.084;11.086;2024-01-16T09:54:40;99182.59;;;1.78;78.51
84760;BME280;74983;51.084;11.086;2024-01-16T09:57:06;99176.16;;;1.70;77.20
84760;BME280;74983;51.084;11.086;2024-01-16T09:59:32;99184.88;;;1.67;78.81
84760;BME280;74983;51.084;11.086;2024-01-16T10:02:01;99184.03;;;1.67;78.51
84760;BME280;74983;51.084;11.086;2024-01-16T10:04:30;99180.03;;;1.61;77.95
84760;BME280;74983;51.084;11.086;2024-01-16T10:06:56;99180.41;;;1.71;77.80
84760;BME280;74983;51.084;11.086;2024-01-16T10:09:23;99176.78;;;1.75;78.11
84760;BME280;74983;51.084;11.086;2024-01-16T10:11:48;99174.13;;;1.76;77.87
84760;BME280;74983;51.084;11.086;2024-01-16T10:14:16;99186.22;;;1.74;77.97
84760;BME280;74983;51.084;11.086;2024-01-16T10:17:02;99171.72;;;1.73;78.82
84760;BME280;74983;51.084;11.086;2024-01-16T10:19:30;99171.97;;;1.69;77.76
84760;BME280;74983;51.084;11.086;2024-01-16T10:22:06;99169.53;;;1.66;78.14
84760;BME280;74983;51.084;11.086;2024-01-16T10:24:32;99158.22;;;1.70;78.67
84760;BME280;74983;51.084;11.086;2024-01-16T10:27:01;99162.28;;;1.74;78.46
84760;BME280;74983;51.084;11.086;2024-01-16T10:29:27;99162.75;;;1.82;78.24
84760;BME280;74983;51.084;11.086;2024-01-16T10:31:53;99157.84;;;1.94;77.78
84760;BME280;74983;51.084;11.086;2024-01-16T10:34:19;99152.94;;;1.90;77.32
84760;BME280;74983;51.084;11.086;2024-01-16T10:36:45;99162.38;;;1.89;78.28
84760;BME280;74983;51.084;11.086;2024-01-16T10:39:10;99157.00;;;1.94;78.06
84760;BME280;74983;51.084;11.086;2024-01-16T10:41:36;99164.47;;;1.98;77.22
84760;BME280;74983;51.084;11.086;2024-01-16T10:44:06;99161.00;;;1.99;77.62
84760;BME280;74983;51.084;11.086;2024-01-16T10:46:32;99167.66;;;2.03;77.51
84760;BME280;74983;51.084;11.086;2024-01-16T10:49:02;99166.88;;;2.01;77.82
84760;BME280;74983;51.084;11.086;2024-01-16T10:51:30;99166.38;;;1.95;76.50
84760;BME280;74983;51.084;11.086;2024-01-16T10:54:01;99171.19;;;2.01;77.36
84760;BME280;74983;51.084;11.086;2024-01-16T10:56:29;99166.97;;;2.00;76.96
84760;BME280;74983;51.084;11.086;2024-01-16T10:59:04;99164.47;;;1.98;77.05
84760;BME280;74983;51.084;11.086;2024-01-16T11:01:31;99161.16;;;1.96;76.95
84760;BME280;74983;51.084;11.086;2024-01-16T11:03:58;99164.78;;;1.92;76.48
84760;BME280;74983;51.084;11.086;2024-01-16T11:06:26;99158.59;;;1.96;77.43
84760;BME280;74983;51.084;11.086;2024-01-16T11:08:52;99160.78;;;2.04;77.19
84760;BME280;74983;51.084;11.086;2024-01-16T11:11:17;99164.84;;;2.08;76.65
84760;BME280;74983;51.084;11.086;2024-01-16T11:13:43;99157.47;;;2.02;75.55
84760;BME280;74983;51.084;11.086;2024-01-16T11:16:12;99162.72;;;1.99;75.80
84760;BME280;74983;51.084;11.086;2024-01-16T11:18:37;99160.31;;;1.96;75.57
84760;BME280;74983;51.084;11.086;2024-01-16T11:21:08;99153.47;;;1.96;75.80
84760;BME280;74983;51.084;11.086;2024-01-16T11:23:34;99163.72;;;1.96;76.39
84760;BME280;74983;51.084;11.086;2024-01-16T11:26:00;99166.38;;;1.95;76.31
84760;BME280;74983;51.084;11.086;2024-01-16T11:28:28;99166.97;;;2.00;77.05
84760;BME280;74983;51.084;11.086;2024-01-16T11:30:56;99161.69;;;2.03;75.72
84760;BME280;74983;51.084;11.086;2024-01-16T11:35:56;99160.28;;;2.13;75.29
84760;BME280;74983;51.084;11.086;2024-01-16T11:38:23;99155.25;;;2.11;75.55
84760;BME280;74983;51.084;11.086;2024-01-16T11:40:48;99157.66;;;2.14;75.41
84760;BME280;74983;51.084;11.086;2024-01-16T11:43:35;99152.13;;;2.22;75.53
84760;BME280;74983;51.084;11.086;2024-01-16T11:46:07;99151.50;;;2.34;74.69
84760;BME280;74983;51.084;11.086;2024-01-16T11:48:33;99152.25;;;2.36;73.12
84760;BME280;74983;51.084;11.086;2024-01-16T11:50:59;99145.06;;;2.43;75.44
84760;BME280;74983;51.084;11.086;2024-01-16T11:53:30;99147.31;;;2.49;75.38
84760;BME280;74983;51.084;11.086;2024-01-16T11:59:08;99136.44;;;2.44;73.61
84760;BME280;74983;51.084;11.086;2024-01-16T12:01:41;99136.44;;;2.44;73.90
84760;BME280;74983;51.084;11.086;2024-01-16T12:04:09;99134.63;;;2.46;74.05
84760;BME280;74983;51.084;11.086;2024-01-16T12:06:35;99133.72;;;2.47;73.69
84760;BME280;74983;51.084;11.086;2024-01-16T12:09:14;99126.59;;;2.52;73.57
84760;BME280;74983;51.084;11.086;2024-01-16T12:11:40;99128.28;;;2.53;72.78
84760;BME280;74983;51.084;11.086;2024-01-16T12:14:05;99132.41;;;2.55;74.24
84760;BME280;74983;51.084;11.086;2024-01-16T12:16:31;99116.22;;;2.53;72.88
84760;BME280;74983;51.084;11.086;2024-01-16T12:19:05;99117.81;;;2.56;72.29
84760;BME280;74983;51.084;11.086;2024-01-16T12:21:33;99116.59;;;2.63;72.50
84760;BME280;74983;51.084;11.086;2024-01-16T12:24:05;99114.69;;;2.66;72.98
84760;BME280;74983;51.084;11.086;2024-01-16T12:26:31;99122.72;;;2.76;72.57
84760;BME280;74983;51.084;11.086;2024-01-16T12:28:57;99116.59;;;2.78;71.32
84760;BME280;74983;51.084;11.086;2024-01-16T12:31:23;99121.47;;;2.67;72.91
84760;BME280;74983;51.084;11.086;2024-01-16T12:33:49;99107.53;;;2.56;71.08
84760;BME280;74983;51.084;11.086;2024-01-16T12:36:15;99118.97;;;2.50;71.66
84760;BME280;74983;51.084;11.086;2024-01-16T12:38:40;99118.03;;;2.51;72.83
84760;BME280;74983;51.084;11.086;2024-01-16T12:41:08;99118.31;;;2.47;73.22
84760;BME280;74983;51.084;11.086;2024-01-16T12:43:34;99119.22;;;2.46;72.02
84760;BME280;74983;51.084;11.086;2024-01-16T12:46:02;99114.09;;;2.46;73.32
84760;BME280;74983;51.084;11.086;2024-01-16T12:48:27;99115.66;;;2.48;71.38
84760;BME280;74983;51.084;11.086;2024-01-16T12:50:59;99128.84;;;2.42;72.30
84760;BME280;74983;51.084;11.086;2024-01-16T12:53:27;99126.34;;;2.41;72.06
84760;BME280;74983;51.084;11.086;2024-01-16T12:56:01;99120.88;;;2.47;73.29